Time;durP1;ratioP1;P1;durP2;ratioP2;P2;SDS_P1;SDS_P2;PMS_P1;PMS_P2;Temp;Humidity;BMP_temperature;BMP_pressure;BME280_temperature;BME280_humidity;BME280_pressure;Samples;Min_cycle;Max_cycle;Signal;HPM_P1;HPM_P2
2022/08/14 00:01:09;;;;;;;5.65;5.28;;;;;;;20.81;83.58;101011.94;5230695;28;20155;-82
2022/08/14 00:03:39;;;;;;;6.32;5.93;;;;;;;20.64;84.56;100990.75;5230399;28;20108;-82
2022/08/14 00:06:10;;;;;;;5.60;5.30;;;;;;;20.68;85.57;101002.72;5213201;28;20098;-82
2022/08/14 00:08:40;;;;;;;6.20;5.85;;;;;;;20.67;86.25;101006.59;5212669;28;20013;-81
2022/08/14 00:11:11;;;;;;;5.60;5.07;;;;;;;20.63;86.92;101005.63;5230165;28;20033;-82
2022/08/14 00:13:42;;;;;;;5.95;5.45;;;;;;;20.47;88.18;100986.06;5229599;28;20031;-82
2022/08/14 00:16:13;;;;;;;13.00;6.20;;;;;;;20.50;88.93;100992.84;5212739;28;20043;-81
2022/08/14 00:18:43;;;;;;;6.18;5.55;;;;;;;20.31;89.31;100973.06;5230238;28;20025;-81
2022/08/14 00:21:14;;;;;;;5.20;4.85;;;;;;;20.20;90.04;100947.88;5230012;28;20020;-81
2022/08/14 00:23:44;;;;;;;6.78;6.30;;;;;;;20.23;90.50;100950.78;5211681;28;20029;-81
2022/08/14 00:26:14;;;;;;;5.57;5.28;;;;;;;20.24;92.15;100965.28;5230590;28;20017;-81
2022/08/14 00:28:45;;;;;;;5.68;5.40;;;;;;;20.17;92.92;100954.00;5230616;28;20024;-82
2022/08/14 00:31:15;;;;;;;6.05;5.50;;;;;;;20.24;93.52;100966.09;5230063;28;20114;-81
2022/08/14 00:33:46;;;;;;;4.82;4.43;;;;;;;20.10;94.18;100938.00;5211037;28;20024;-81
2022/08/14 00:36:16;;;;;;;5.93;5.63;;;;;;;20.22;94.87;100962.88;5229916;28;20025;-81
2022/08/14 00:38:46;;;;;;;5.03;4.78;;;;;;;20.17;95.60;100959.50;5231509;28;20192;-81
2022/08/14 00:41:17;;;;;;;7.22;5.95;;;;;;;20.07;96.25;100944.13;5233618;28;20102;-82
2022/08/14 00:43:47;;;;;;;6.47;5.97;;;;;;;19.95;96.20;100935.69;5233508;28;20033;-82
2022/08/14 00:46:18;;;;;;;7.70;6.40;;;;;;;19.86;97.51;100926.66;5215399;28;20116;-82
2022/08/14 00:48:48;;;;;;;5.57;5.25;;;;;;;19.89;98.20;100932.31;5215096;28;20016;-81
2022/08/14 00:51:20;;;;;;;5.55;5.25;;;;;;;20.03;98.82;100958.78;5232983;28;20052;-81
2022/08/14 00:53:50;;;;;;;8.55;5.80;;;;;;;20.00;100.00;100965.69;5232889;28;20036;-82
2022/08/14 00:56:21;;;;;;;9.18;5.97;;;;;;;19.82;100.00;100942.09;5215110;28;20474;-82
2022/08/14 00:58:53;;;;;;;5.45;5.18;;;;;;;19.78;100.00;100933.69;5215074;28;20017;-81
2022/08/14 01:01:24;;;;;;;6.28;5.88;;;;;;;19.72;100.00;100934.16;5232302;28;20044;-82
2022/08/14 01:03:57;;;;;;;7.22;6.00;;;;;;;19.66;100.00;100930.72;5232066;28;20029;-81
2022/08/14 01:06:30;;;;;;;6.05;5.65;;;;;;;19.64;100.00;100940.38;5232955;28;20464;-81
2022/08/14 01:09:02;;;;;;;8.13;7.50;;;;;;;19.66;100.00;100947.16;5232818;28;20024;-81
2022/08/14 01:11:32;;;;;;;6.00;5.57;;;;;;;19.60;100.00;100939.41;5232268;28;20040;-81
2022/08/14 01:14:03;;;;;;;5.80;5.30;;;;;;;19.57;100.00;100942.78;5214189;28;20029;-81
2022/08/14 01:16:34;;;;;;;6.60;6.28;;;;;;;19.29;100.00;100934.69;5232314;28;20121;-81
2022/08/14 01:21:53;;;;;;;6.82;6.28;;;;;;;18.97;100.00;100932.22;5232010;28;20062;-81
2022/08/14 01:24:25;;;;;;;6.50;6.10;;;;;;;18.95;100.00;100950.88;5231868;28;20033;-81
2022/08/14 01:26:56;;;;;;;6.43;6.10;;;;;;;18.75;100.00;100931.09;5215970;28;20111;-81
2022/08/14 01:29:36;;;;;;;6.75;6.25;;;;;;;18.76;100.00;100937.38;5232362;28;20028;-81
2022/08/14 01:32:07;;;;;;;6.60;6.20;;;;;;;18.64;100.00;100934.34;5213392;28;20040;-81
2022/08/14 01:34:37;;;;;;;5.95;5.65;;;;;;;18.55;100.00;100943.25;5234586;28;20025;-81
2022/08/14 01:37:09;;;;;;;4.90;4.68;;;;;;;18.51;100.00;100923.09;5231847;28;20270;-81
2022/08/14 01:39:40;;;;;;;6.30;5.90;;;;;;;18.41;100.00;100915.13;5233714;28;20025;-81
2022/08/14 01:42:10;;;;;;;6.15;5.70;;;;;;;18.41;100.00;100914.31;5236430;28;20024;-82
2022/08/14 01:44:41;;;;;;;6.57;6.28;;;;;;;18.47;100.00;100924.03;5232863;28;20028;-83
2022/08/14 01:47:12;;;;;;;6.10;5.60;;;;;;;18.41;100.00;100906.94;5234768;28;20024;-82
2022/08/14 01:49:43;;;;;;;6.20;5.80;;;;;;;18.43;100.00;100909.34;5214480;28;20372;-82
2022/08/14 01:52:13;;;;;;;7.75;7.15;;;;;;;18.25;100.00;100880.22;5233144;28;20152;-82
2022/08/14 01:54:44;;;;;;;6.45;6.13;;;;;;;18.48;100.00;100910.03;5234430;28;20029;-82
2022/08/14 01:57:14;;;;;;;6.97;6.13;;;;;;;18.48;100.00;100914.69;5214581;28;20051;-81
2022/08/14 01:59:44;;;;;;;7.70;7.18;;;;;;;18.40;100.00;100901.75;5214020;28;20051;-81
2022/08/14 02:02:16;;;;;;;7.97;7.32;;;;;;;18.23;100.00;100877.78;5214609;28;20052;-81
2022/08/14 02:04:46;;;;;;;7.93;7.43;;;;;;;18.33;100.00;100901.38;5231242;28;20027;-82
2022/08/14 02:07:17;;;;;;;6.90;6.50;;;;;;;18.43;100.00;100912.09;5231543;28;20254;-81
2022/08/14 02:09:47;;;;;;;7.55;7.05;;;;;;;18.39;100.00;100916.56;5231827;28;20028;-81
2022/08/14 02:12:18;;;;;;;8.10;7.70;;;;;;;18.28;100.00;100917.88;5213675;28;20044;-82
2022/08/14 02:14:49;;;;;;;9.25;8.60;;;;;;;18.32;100.00;100910.69;5231278;28;20112;-82
2022/08/14 02:17:22;;;;;;;8.25;7.78;;;;;;;18.11;100.00;100872.06;5231508;28;20017;-81
2022/08/14 02:19:53;;;;;;;9.02;8.45;;;;;;;18.21;100.00;100896.41;5213143;28;20029;-82
2022/08/14 02:22:24;;;;;;;9.07;8.57;;;;;;;18.25;100.00;100910.28;5231917;28;20090;-81
2022/08/14 02:24:54;;;;;;;9.05;8.25;;;;;;;18.16;100.00;100897.34;5230775;28;20029;-81
2022/08/14 02:27:26;;;;;;;8.80;8.10;;;;;;;18.08;100.00;100906.25;5213487;28;20021;-81
2022/08/14 02:29:57;;;;;;;8.38;7.72;;;;;;;18.07;100.00;100907.38;5230632;28;20025;-82
2022/08/14 02:32:28;;;;;;;8.73;7.97;;;;;;;17.97;100.00;100899.38;5230310;28;20052;-81
2022/08/14 02:34:59;;;;;;;9.25;8.55;;;;;;;18.04;100.00;100909.91;5230299;28;20033;-82
2022/08/14 02:37:29;;;;;;;9.10;8.60;;;;;;;18.12;100.00;100915.47;5231201;28;20021;-81
2022/08/14 02:40:01;;;;;;;9.00;8.40;;;;;;;18.17;100.00;100903.63;5230974;28;20112;-81
2022/08/14 02:42:32;;;;;;;9.88;8.43;;;;;;;18.13;100.00;100910.81;5213571;28;20552;-82
2022/08/14 02:45:04;;;;;;;7.80;7.30;;;;;;;17.98;100.00;100908.38;5230127;28;20036;-81
2022/08/14 02:47:35;;;;;;;8.57;7.88;;;;;;;17.98;100.00;100911.94;5212684;28;20108;-81
2022/08/14 02:50:06;;;;;;;9.02;8.32;;;;;;;17.73;100.00;100901.50;5230089;28;20086;-81
2022/08/14 02:52:37;;;;;;;8.43;7.93;;;;;;;17.67;100.00;100906.25;5213220;28;20055;-81
2022/08/14 02:55:08;;;;;;;7.00;6.50;;;;;;;17.59;100.00;100920.59;5229663;28;20029;-82
2022/08/14 02:57:39;;;;;;;8.02;7.53;;;;;;;17.61;100.00;100923.03;5212182;28;20024;-81
2022/08/14 03:00:12;;;;;;;7.30;6.60;;;;;;;17.58;100.00;100918.16;5212253;28;20036;-81
2022/08/14 03:02:42;;;;;;;7.60;7.10;;;;;;;17.35;100.00;100898.88;5230145;28;20116;-81
2022/08/14 03:05:12;;;;;;;7.18;6.68;;;;;;;17.40;100.00;100917.09;5230069;28;20028;-81
2022/08/14 03:07:43;;;;;;;7.93;7.43;;;;;;;17.11;100.00;100879.13;5247843;22;20041;-58
2022/08/14 03:10:13;;;;;;;6.82;6.22;;;;;;;17.16;100.00;100906.31;5221804;28;20043;-58
2022/08/14 03:12:44;;;;;;;9.30;5.50;;;;;;;16.99;100.00;100889.72;5204607;28;20396;-59
2022/08/14 03:15:15;;;;;;;7.07;6.60;;;;;;;17.03;100.00;100904.38;5221750;28;20376;-59
2022/08/14 03:17:45;;;;;;;8.93;7.95;;;;;;;16.96;100.00;100902.03;5222293;28;20392;-59
2022/08/14 03:20:15;;;;;;;7.18;6.72;;;;;;;16.94;100.00;100898.78;5222350;28;20025;-59
2022/08/14 03:22:46;;;;;;;7.72;7.32;;;;;;;16.95;100.00;100894.94;5222435;28;20098;-59
2022/08/14 03:25:17;;;;;;;7.22;6.63;;;;;;;16.97;100.00;100889.19;5221810;28;20032;-59
2022/08/14 03:27:47;;;;;;;7.88;7.25;;;;;;;16.85;100.00;100889.66;5221861;28;20025;-59
2022/08/14 03:30:18;;;;;;;10.38;7.85;;;;;;;16.83;100.00;100889.13;5221915;28;20175;-59
2022/08/14 03:32:48;;;;;;;8.52;8.00;;;;;;;16.78;100.00;100894.66;5224176;28;20021;-59
2022/08/14 03:35:20;;;;;;;6.78;6.30;;;;;;;16.74;100.00;100902.66;5233112;28;20434;-59
2022/08/14 03:37:51;;;;;;;7.90;7.32;;;;;;;16.69;100.00;100891.81;5240784;28;20538;-60
2022/08/14 03:40:23;;;;;;;6.53;6.22;;;;;;;16.56;100.00;100881.59;5241515;28;20024;-60
2022/08/14 03:42:54;;;;;;;9.10;8.45;;;;;;;16.57;100.00;100883.22;5237120;28;20112;-60
2022/08/14 03:45:24;;;;;;;8.25;7.55;;;;;;;16.59;100.00;100897.38;5242005;28;20318;-60
2022/08/14 03:47:55;;;;;;;8.98;8.38;;;;;;;16.52;100.00;100892.28;5242229;28;20016;-61
2022/08/14 03:50:27;;;;;;;7.55;6.93;;;;;;;16.51;100.00;100892.56;5242661;28;20476;-60
2022/08/14 03:53:01;;;;;;;7.75;7.03;;;;;;;16.38;100.00;100869.59;5242429;28;20051;-60
2022/08/14 03:55:32;;;;;;;8.88;8.18;;;;;;;16.44;100.00;100878.53;5242117;28;20241;-60
2022/08/14 03:58:02;;;;;;;12.57;7.65;;;;;;;16.36;100.00;100881.91;5224068;28;20476;-60
2022/08/14 04:00:35;;;;;;;7.43;7.00;;;;;;;16.38;100.00;100885.16;5224566;28;20035;-60
2022/08/14 04:03:08;;;;;;;10.18;7.00;;;;;;;16.35;100.00;100880.28;5242820;28;20028;-61
2022/08/14 04:05:38;;;;;;;14.60;8.25;;;;;;;16.32;100.00;100869.97;5242361;28;20400;-59
2022/08/14 04:08:09;;;;;;;9.80;8.18;;;;;;;16.41;100.00;100862.75;5241639;28;20072;-60
2022/08/14 04:10:40;;;;;;;9.43;8.88;;;;;;;16.54;100.00;100864.72;5221256;28;20023;-59
2022/08/14 04:13:10;;;;;;;10.55;9.73;;;;;;;16.70;100.00;100863.44;5243146;28;20217;-61
2022/08/14 04:15:41;;;;;;;8.45;7.85;;;;;;;16.83;100.00;100861.84;5246123;28;20074;-61
2022/08/14 04:18:12;;;;;;;10.00;9.18;;;;;;;16.88;100.00;100854.41;5246342;28;20112;-60
2022/08/14 04:20:43;;;;;;;15.00;9.73;;;;;;;16.91;100.00;100854.91;5246253;28;20503;-61
2022/08/14 04:23:13;;;;;;;10.93;10.05;;;;;;;16.85;100.00;100852.28;5245997;28;20029;-60
2022/08/14 04:25:43;;;;;;;9.55;8.85;;;;;;;16.84;100.00;100852.56;5228168;28;20028;-61
2022/08/14 04:28:14;;;;;;;10.55;9.63;;;;;;;16.79;100.00;100841.75;5228129;28;20095;-61
2022/08/14 04:30:44;;;;;;;9.63;8.93;;;;;;;16.72;100.00;100833.97;5246621;28;20136;-60
2022/08/14 04:33:15;;;;;;;11.18;10.38;;;;;;;16.75;100.00;100846.97;5228026;28;20500;-61
2022/08/14 04:35:45;;;;;;;10.90;10.00;;;;;;;16.72;100.00;100842.13;5228027;28;20052;-61
2022/08/14 04:43:55;;;;;;;10.65;9.95;;;;;;;16.74;100.00;100834.47;5245920;28;20105;-61
2022/08/14 04:46:27;;;;;;;10.75;9.90;;;;;;;16.73;100.00;100821.94;5246100;28;20025;-62
2022/08/14 04:48:57;;;;;;;10.00;9.10;;;;;;;16.77;100.00;100839.31;5246384;28;20028;-62
2022/08/14 04:51:28;;;;;;;12.00;10.95;;;;;;;16.81;100.00;100829.44;5245847;28;20081;-61
2022/08/14 04:54:00;;;;;;;10.05;9.25;;;;;;;16.85;100.00;100829.63;5227186;28;20208;-61
2022/08/14 04:56:30;;;;;;;10.88;10.05;;;;;;;16.87;100.00;100838.34;5246127;28;20028;-61
2022/08/14 04:59:05;;;;;;;11.27;10.27;;;;;;;16.91;100.00;100844.00;5245798;28;20375;-61
2022/08/14 05:01:35;;;;;;;8.77;8.20;;;;;;;16.90;100.00;100843.19;5245980;28;20031;-61
2022/08/14 05:04:07;;;;;;;9.23;8.50;;;;;;;16.87;100.00;100847.31;5245034;28;20092;-61
2022/08/14 05:06:38;;;;;;;9.32;8.60;;;;;;;16.86;100.00;100848.44;5245485;28;20082;-61
2022/08/14 05:09:09;;;;;;;9.32;8.48;;;;;;;16.80;100.00;100825.06;5246011;28;20410;-61
2022/08/14 05:11:40;;;;;;;10.20;9.45;;;;;;;17.02;100.00;100845.47;5245656;28;20033;-61
2022/08/14 05:14:11;;;;;;;8.95;8.35;;;;;;;17.11;100.00;100844.47;5245058;28;20086;-61
2022/08/14 05:16:42;;;;;;;11.38;10.30;;;;;;;17.19;100.00;100846.50;5245248;28;20088;-61
2022/08/14 05:19:14;;;;;;;8.77;8.07;;;;;;;17.27;100.00;100849.66;5245095;28;20515;-61
2022/08/14 05:21:44;;;;;;;8.73;8.13;;;;;;;17.35;100.00;100849.75;5227020;28;20032;-61
2022/08/14 05:24:15;;;;;;;8.27;7.78;;;;;;;17.43;100.00;100846.34;5244700;28;20016;-61
2022/08/14 05:26:45;;;;;;;9.07;8.40;;;;;;;17.52;100.00;100844.53;5245367;28;20031;-62
2022/08/14 05:29:16;;;;;;;8.82;8.23;;;;;;;17.66;100.00;100838.28;5245157;28;20099;-61
2022/08/14 05:31:47;;;;;;;10.32;9.63;;;;;;;17.75;100.00;100834.53;5244900;28;20109;-61
2022/08/14 05:34:18;;;;;;;10.20;9.27;;;;;;;17.83;100.00;100843.94;5244618;28;20079;-61
2022/08/14 05:36:48;;;;;;;7.35;6.80;;;;;;;17.86;100.00;100843.34;5245341;28;20043;-61
2022/08/14 05:39:19;;;;;;;9.23;8.50;;;;;;;17.97;100.00;100833.78;5245033;28;20099;-61
2022/08/14 05:41:50;;;;;;;9.00;8.40;;;;;;;18.06;100.00;100842.09;5244846;28;20115;-61
2022/08/14 05:44:21;;;;;;;7.95;7.45;;;;;;;18.11;100.00;100840.06;5244234;28;20046;-61
2022/08/14 05:46:51;;;;;;;8.95;8.35;;;;;;;18.20;100.00;100838.19;5226162;28;20115;-61
2022/08/14 05:49:21;;;;;;;9.15;8.38;;;;;;;18.30;100.00;100828.97;5244457;28;20360;-61
2022/08/14 05:51:52;;;;;;;8.43;7.93;;;;;;;18.39;100.00;100829.88;5245353;28;20051;-61
2022/08/14 05:54:24;;;;;;;8.77;8.18;;;;;;;18.48;100.00;100838.13;5244942;28;20045;-61
2022/08/14 05:56:54;;;;;;;9.25;8.55;;;;;;;18.48;100.00;100825.25;5247713;28;20109;-61
2022/08/14 05:59:24;;;;;;;8.85;7.95;;;;;;;18.60;100.00;100830.22;5246291;28;20016;-61
2022/08/14 06:01:55;;;;;;;9.55;8.82;;;;;;;18.72;100.00;100825.00;5245422;28;20028;-61
2022/08/14 06:04:25;;;;;;;10.02;9.43;;;;;;;18.78;100.00;100814.72;5244414;28;20032;-61
2022/08/14 06:06:56;;;;;;;9.02;8.40;;;;;;;18.92;100.00;100820.13;5244751;28;20086;-61
2022/08/14 06:09:26;;;;;;;8.38;7.88;;;;;;;19.02;100.00;100817.94;5244508;28;20131;-61
2022/08/14 06:11:56;;;;;;;8.63;7.90;;;;;;;19.12;100.00;100814.13;5244437;28;20028;-61
2022/08/14 06:14:27;;;;;;;7.45;7.05;;;;;;;19.21;100.00;100823.19;5243550;28;20072;-61
2022/08/14 06:16:57;;;;;;;7.40;6.80;;;;;;;19.26;100.00;100812.13;5244112;28;20137;-61
2022/08/14 06:19:28;;;;;;;8.50;7.95;;;;;;;19.35;100.00;100812.94;5225806;28;20028;-61
2022/08/14 06:21:58;;;;;;;6.90;6.50;;;;;;;19.43;100.00;100817.66;5243851;28;20028;-61
2022/08/14 06:24:28;;;;;;;19.00;9.02;;;;;;;19.50;100.00;100812.56;5242630;28;20021;-61
2022/08/14 06:26:59;;;;;;;8.07;7.47;;;;;;;19.51;100.00;100794.19;5243110;28;20036;-61
2022/08/14 06:29:30;;;;;;;10.02;8.43;;;;;;;19.60;100.00;100799.72;5242941;28;20081;-61
2022/08/14 06:32:01;;;;;;;8.77;8.07;;;;;;;19.74;100.00;100805.84;5243610;28;20044;-61
2022/08/14 06:34:32;;;;;;;12.10;8.20;;;;;;;19.74;100.00;100794.91;5242799;28;20030;-61
2022/08/14 06:37:02;;;;;;;8.27;7.65;;;;;;;19.83;100.00;100810.25;5243523;28;20100;-61
2022/08/14 06:39:33;;;;;;;8.52;7.93;;;;;;;19.94;100.00;100813.47;5244394;28;20024;-61
2022/08/14 06:42:04;;;;;;;9.18;8.23;;;;;;;19.94;100.00;100807.97;5244343;28;20087;-61
2022/08/14 06:44:34;;;;;;;9.02;8.52;;;;;;;20.00;100.00;100817.69;5208966;28;20396;-61
2022/08/14 06:47:05;;;;;;;10.75;8.65;;;;;;;20.06;100.00;100812.84;5226005;28;20465;-61
2022/08/14 06:49:36;;;;;;;10.40;9.60;;;;;;;20.13;100.00;100811.25;5243793;28;20025;-61
2022/08/14 06:52:06;;;;;;;9.57;8.40;;;;;;;20.22;100.00;100811.25;5243448;28;20070;-61
2022/08/14 06:54:37;;;;;;;9.07;8.48;;;;;;;20.35;100.00;100817.72;5242386;28;20028;-61
2022/08/14 06:57:07;;;;;;;8.40;7.75;;;;;;;20.45;100.00;100809.19;5242682;28;20107;-61
2022/08/14 06:59:38;;;;;;;12.70;10.07;;;;;;;20.59;100.00;100811.75;5242941;28;20447;-61
2022/08/14 07:07:47;;;;;;;9.05;8.25;;;;;;;21.09;100.00;100803.75;5244215;28;20033;-59
2022/08/14 07:10:17;;;;;;;9.40;8.65;;;;;;;21.25;100.00;100799.38;5243122;28;20144;-59
2022/08/14 07:12:48;;;;;;;10.80;9.80;;;;;;;21.41;100.00;100799.59;5224421;28;20502;-60
2022/08/14 07:15:18;;;;;;;13.63;11.02;;;;;;;21.68;100.00;100798.34;5227570;28;20051;-59
2022/08/14 07:17:50;;;;;;;9.13;8.52;;;;;;;21.98;100.00;100793.63;5222436;28;20096;-60
2022/08/14 07:20:21;;;;;;;10.68;9.50;;;;;;;22.26;100.00;100799.44;5222489;28;20091;-59
2022/08/14 07:22:52;;;;;;;10.63;9.77;;;;;;;22.60;100.00;100803.84;5204635;28;20028;-60
2022/08/14 07:25:24;;;;;;;7.63;7.10;;;;;;;22.94;100.00;100788.94;5187978;28;20040;-60
2022/08/14 07:27:54;;;;;;;18.20;8.27;;;;;;;23.39;100.00;100789.69;5222366;28;20116;-60
2022/08/14 07:30:25;;;;;;;12.70;8.48;;;;;;;23.78;100.00;100790.97;5204719;28;20099;-59
2022/08/14 07:32:55;;;;;;;8.15;7.70;;;;;;;24.06;100.00;100788.28;5222986;28;20104;-59
2022/08/14 07:35:26;;;;;;;10.07;9.40;;;;;;;24.40;99.77;100795.22;5222217;28;20082;-60
2022/08/14 07:37:56;;;;;;;7.63;7.03;;;;;;;24.77;97.76;100789.53;5222860;28;20365;-59
2022/08/14 07:40:26;;;;;;;7.85;7.35;;;;;;;25.11;95.35;100785.34;5222658;28;20025;-60
2022/08/14 07:42:57;;;;;;;9.35;8.45;;;;;;;25.46;93.83;100786.19;5222163;28;20029;-60
2022/08/14 07:45:28;;;;;;;8.52;8.00;;;;;;;25.64;87.62;100774.81;5222392;28;20099;-60
2022/08/14 07:47:58;;;;;;;5.28;4.97;;;;;;;25.90;86.10;100773.03;5224422;28;20025;-60
2022/08/14 07:50:29;;;;;;;8.23;7.13;;;;;;;26.15;82.80;100756.16;5226600;28;20599;-60
2022/08/14 07:53:00;;;;;;;7.97;7.40;;;;;;;26.10;80.56;100731.53;5226822;28;20033;-58
2022/08/14 07:55:31;;;;;;;12.18;6.70;;;;;;;26.42;80.03;100757.94;5208309;28;20021;-57
2022/08/14 07:58:01;;;;;;;8.25;7.45;;;;;;;26.67;79.44;100747.34;5208341;28;20139;-58
2022/08/14 08:00:32;;;;;;;6.25;5.85;;;;;;;26.84;77.33;100755.19;5224001;28;20053;-58
2022/08/14 08:03:07;;;;;;;8.05;7.43;;;;;;;27.12;76.28;100751.31;5207686;28;20025;-60
2022/08/14 08:05:39;;;;;;;6.65;6.00;;;;;;;27.39;75.08;100744.63;5205848;28;20435;-60
2022/08/14 08:08:11;;;;;;;5.55;5.15;;;;;;;27.76;74.91;100755.09;5225871;28;20194;-59
2022/08/14 08:10:42;;;;;;;7.22;6.57;;;;;;;27.98;73.80;100761.75;5226362;28;20025;-59
2022/08/14 08:13:14;;;;;;;5.40;5.03;;;;;;;27.88;71.29;100722.38;5226262;28;20032;-60
2022/08/14 08:15:55;;;;;;;5.10;4.80;;;;;;;28.39;71.19;100749.59;5226364;28;20507;-60
2022/08/14 08:18:25;;;;;;;6.28;5.88;;;;;;;28.60;69.17;100749.03;5226520;28;20067;-60
2022/08/14 08:20:56;;;;;;;6.70;6.03;;;;;;;28.70;67.62;100747.53;5226476;28;20064;-60
2022/08/14 08:23:29;;;;;;;6.82;5.30;;;;;;;28.87;66.84;100746.97;5225983;28;20104;-60
2022/08/14 08:25:59;;;;;;;7.30;6.80;;;;;;;28.84;65.50;100742.16;5226039;28;20021;-60
2022/08/14 08:28:30;;;;;;;7.53;6.93;;;;;;;28.86;66.95;100742.59;5226170;28;20492;-59
2022/08/14 08:31:04;;;;;;;10.32;6.00;;;;;;;28.93;65.81;100739.84;5207917;28;20016;-60
2022/08/14 08:33:35;;;;;;;6.07;5.68;;;;;;;29.22;66.61;100735.31;5225962;28;20045;-60
2022/08/14 08:36:10;;;;;;;7.57;5.03;;;;;;;29.52;64.49;100735.97;5226649;28;20025;-60
2022/08/14 08:38:40;;;;;;;5.78;5.47;;;;;;;29.86;62.80;100725.44;5225880;28;20029;-60
2022/08/14 08:41:11;;;;;;;6.35;5.78;;;;;;;29.96;61.47;100729.47;5225688;28;20021;-60
2022/08/14 08:43:42;;;;;;;5.22;4.95;;;;;;;29.98;59.87;100738.22;5226137;28;20016;-60
2022/08/14 08:46:18;;;;;;;4.82;4.50;;;;;;;30.27;59.98;100727.22;5208203;28;20430;-60
2022/08/14 08:48:50;;;;;;;6.20;5.82;;;;;;;30.40;59.24;100726.44;5226231;28;20404;-60
2022/08/14 08:51:28;;;;;;;6.68;6.10;;;;;;;30.45;58.79;100728.84;5226971;28;20104;-60
2022/08/14 08:54:01;;;;;;;6.53;5.75;;;;;;;30.62;57.60;100723.72;5225642;28;20033;-60
2022/08/14 08:56:45;;;;;;;6.22;5.82;;;;;;;30.95;56.67;100726.16;5225847;28;20028;-59
2022/08/14 08:59:25;;;;;;;4.57;4.20;;;;;;;31.34;56.06;100720.59;5224904;28;20033;-60
2022/08/14 09:02:01;;;;;;;7.20;5.82;;;;;;;31.80;55.03;100722.50;5225454;28;20572;-60
2022/08/14 09:04:40;;;;;;;4.75;4.25;;;;;;;31.76;53.68;100721.75;5225695;28;20449;-60
2022/08/14 09:07:13;;;;;;;5.47;5.07;;;;;;;31.32;53.16;100716.59;5226028;28;20028;-60
2022/08/14 09:09:52;;;;;;;5.93;5.57;;;;;;;31.19;54.69;100711.44;5260761;22;20043;-67
2022/08/14 09:12:22;;;;;;;5.22;4.93;;;;;;;31.38;55.08;100710.22;5267877;28;20439;-64
2022/08/14 09:14:54;;;;;;;5.15;4.85;;;;;;;31.46;53.11;100706.22;5267609;28;20024;-68
2022/08/14 09:17:25;;;;;;;6.25;5.72;;;;;;;31.64;52.54;100702.59;5261502;28;20369;-64
2022/08/14 09:19:57;;;;;;;5.68;5.28;;;;;;;31.76;51.12;100699.41;5228566;28;20093;-65
2022/08/14 09:22:27;;;;;;;4.80;4.50;;;;;;;31.73;51.66;100698.22;5247044;28;20483;-68
2022/08/14 09:24:58;;;;;;;4.93;4.63;;;;;;;31.97;51.16;100709.69;5245913;28;20078;-65
2022/08/14 09:27:30;;;;;;;5.22;4.40;;;;;;;32.13;50.50;100696.81;5246658;28;20051;-66
2022/08/14 09:30:00;;;;;;;5.57;5.05;;;;;;;32.26;49.67;100696.41;5246632;28;20036;-62
2022/08/14 09:32:57;;;;;;;5.75;5.25;;;;;;;32.35;49.92;100689.13;5228701;28;20086;-63
2022/08/14 09:35:48;;;;;;;4.40;4.10;;;;;;;32.66;49.31;100689.34;5243176;28;20047;-63
2022/08/14 09:38:44;;;;;;;4.45;4.13;;;;;;;33.03;48.05;100688.66;5262767;28;20410;-61
2022/08/14 09:41:32;;;;;;;4.78;4.22;;;;;;;33.22;48.23;100677.66;5266641;28;20123;-65
2022/08/14 09:44:20;;;;;;;7.72;5.50;;;;;;;33.12;46.19;100675.78;5266641;28;20024;-65
2022/08/14 09:46:55;;;;;;;3.90;3.70;;;;;;;32.77;47.23;100679.69;5266724;28;20028;-65
2022/08/14 09:49:36;;;;;;;4.65;4.20;;;;;;;32.58;47.29;100665.44;5248733;28;20111;-66
2022/08/14 09:52:13;;;;;;;4.60;3.17;;;;;;;32.61;47.12;100673.81;5267132;28;20046;-66
2022/08/14 09:54:47;;;;;;;3.92;3.63;;;;;;;32.33;47.10;100671.22;5266064;28;20031;-66
2022/08/14 09:57:26;;;;;;;3.30;3.10;;;;;;;32.31;47.91;100665.22;5266616;28;20028;-62
2022/08/14 09:59:57;;;;;;;3.92;3.63;;;;;;;32.10;47.29;100675.28;5266923;28;20506;-65
2022/08/14 10:02:30;;;;;;;4.88;4.47;;;;;;;31.64;47.33;100669.09;5266937;28;20024;-66
2022/08/14 10:05:10;;;;;;;4.18;3.88;;;;;;;31.46;47.56;100667.16;5266167;28;20479;-64
2022/08/14 10:07:51;;;;;;;5.78;4.22;;;;;;;31.57;48.41;100672.69;5266229;28;20532;-65
2022/08/14 10:10:38;;;;;;;4.43;4.22;;;;;;;31.48;48.02;100661.94;5266440;28;20032;-65
2022/08/14 10:13:24;;;;;;;4.10;3.90;;;;;;;31.31;48.89;100648.84;5253346;28;20521;-65
2022/08/14 10:16:01;;;;;;;5.05;4.75;;;;;;;31.33;49.01;100654.81;5245610;28;20021;-63
2022/08/14 10:18:32;;;;;;;4.63;4.32;;;;;;;31.39;48.96;100650.44;5245390;28;20477;-64
2022/08/14 10:21:05;;;;;;;4.93;4.35;;;;;;;31.23;48.88;100652.84;5245742;28;20020;-67
2022/08/14 10:23:46;;;;;;;4.55;4.35;;;;;;;31.47;49.62;100649.19;5244771;28;20056;-66
2022/08/14 10:26:18;;;;;;;4.30;4.10;;;;;;;31.80;47.96;100649.91;5245284;28;20024;-66
2022/08/14 10:28:51;;;;;;;11.95;4.80;;;;;;;31.75;47.30;100644.75;5244923;28;20056;-66
2022/08/14 10:31:22;;;;;;;7.45;4.80;;;;;;;31.84;46.97;100642.31;5227507;28;20033;-66
2022/08/14 10:34:17;;;;;;;5.00;4.60;;;;;;;32.01;48.06;100638.63;5244634;28;20500;-65
2022/08/14 10:36:47;;;;;;;3.80;3.50;;;;;;;32.21;47.46;100636.94;5245077;28;20059;-65
2022/08/14 10:39:22;;;;;;;12.77;4.93;;;;;;;31.94;47.29;100633.09;5244824;28;20103;-69
2022/08/14 10:42:20;;;;;;;4.72;4.43;;;;;;;31.67;47.75;100634.81;5245356;28;20112;-67
2022/08/14 10:44:51;;;;;;;4.50;4.20;;;;;;;31.57;48.24;100619.66;5244145;28;20043;-65
2022/08/14 10:47:21;;;;;;;4.32;4.03;;;;;;;31.35;47.66;100579.88;5244864;28;20108;-65
2022/08/14 10:50:00;;;;;;;5.00;4.63;;;;;;;31.30;47.96;100622.13;5244765;28;20032;-65
2022/08/14 10:52:34;;;;;;;4.53;4.22;;;;;;;31.27;48.39;100617.38;5244923;28;20038;-67
2022/08/14 10:55:14;;;;;;;4.47;4.18;;;;;;;31.12;48.24;100622.19;5244661;28;20383;-65
2022/08/14 10:57:53;;;;;;;4.20;3.85;;;;;;;31.26;46.98;100610.19;5244771;28;20021;-65
2022/08/14 11:00:27;;;;;;;3.13;2.83;;;;;;;31.56;45.91;100612.47;5245121;28;20722;-65
2022/08/14 11:03:00;;;;;;;3.88;3.50;;;;;;;31.79;45.09;100598.03;5226940;28;20024;-65
2022/08/14 11:05:46;;;;;;;2.33;2.22;;;;;;;31.84;43.46;100594.81;5244274;28;20029;-66
2022/08/14 11:08:28;;;;;;;6.82;2.78;;;;;;;31.70;43.51;100584.53;5244068;28;20115;-63
2022/08/14 11:11:04;;;;;;;3.95;3.65;;;;;;;32.00;44.39;100585.97;5244579;28;20535;-65
2022/08/14 11:13:39;;;;;;;3.13;2.92;;;;;;;32.18;44.06;100587.44;5244243;28;20400;-64
2022/08/14 11:16:09;;;;;;;2.50;2.30;;;;;;;32.33;42.17;100587.38;5244884;28;20031;-65
2022/08/14 11:18:44;;;;;;;2.75;2.65;;;;;;;32.40;41.90;100582.50;5244462;28;20016;-65
2022/08/14 11:21:18;;;;;;;2.55;2.45;;;;;;;32.58;41.15;100585.16;5244650;28;20024;-65
2022/08/14 11:23:49;;;;;;;3.35;3.15;;;;;;;32.76;40.87;100571.81;5243870;28;20099;-64
2022/08/14 11:26:23;;;;;;;3.13;2.92;;;;;;;32.72;40.67;100562.66;5244518;28;20158;-65
2022/08/14 11:28:56;;;;;;;2.40;2.30;;;;;;;32.68;40.35;100566.69;5244534;28;20109;-63
2022/08/14 11:31:30;;;;;;;2.80;2.60;;;;;;;32.93;41.03;100572.06;5244554;28;20055;-65
2022/08/14 11:34:01;;;;;;;3.45;2.95;;;;;;;33.34;40.28;100566.44;5243906;28;20099;-65
2022/08/14 11:36:31;;;;;;;2.65;2.55;;;;;;;33.65;40.48;100562.44;5226513;28;20046;-65
2022/08/14 11:39:02;;;;;;;3.30;3.00;;;;;;;33.89;39.89;100557.72;5244125;28;20392;-62
2022/08/14 11:41:33;;;;;;;2.83;2.63;;;;;;;33.55;38.43;100561.34;5244263;28;20480;-65
2022/08/14 11:44:03;;;;;;;4.55;2.28;;;;;;;33.36;39.23;100550.81;5225787;28;20025;-65
2022/08/14 11:46:34;;;;;;;2.40;2.30;;;;;;;33.67;39.86;100559.22;5244340;28;20019;-63
2022/08/14 11:49:04;;;;;;;15.90;2.75;;;;;;;33.85;39.52;100548.56;5244335;28;20472;-64
2022/08/14 11:51:35;;;;;;;2.67;2.53;;;;;;;34.03;39.12;100545.50;5244379;28;20036;-65
2022/08/14 11:54:06;;;;;;;2.58;2.47;;;;;;;33.96;39.16;100540.81;5243525;28;20017;-65
2022/08/14 11:56:41;;;;;;;6.22;2.70;;;;;;;33.65;38.75;100533.63;5244794;28;20056;-66